sensor_id;sensor_type;location;lat;lon;timestamp;P1;durP1;ratioP1;P2;durP2;ratioP2
83194;SDS011;73090;49.282;11.402;2024-02-15T00:00:48;3.85;;;3.50;;
83194;SDS011;73090;49.282;11.402;2024-02-15T00:04:50;8.18;;;3.72;;
83194;SDS011;73090;49.282;11.402;2024-02-15T00:08:51;6.10;;;4.15;;
83194;SDS011;73090;49.282;11.402;2024-02-15T00:12:53;7.55;;;3.97;;
83194;SDS011;73090;49.282;11.402;2024-02-15T00:16:55;7.68;;;4.55;;
83194;SDS011;73090;49.282;11.402;2024-02-15T00:20:57;7.88;;;4.63;;
83194;SDS011;73090;49.282;11.402;2024-02-15T00:24:58;6.85;;;4.93;;
83194;SDS011;73090;49.282;11.402;2024-02-15T00:29:00;6.78;;;4.30;;
83194;SDS011;73090;49.282;11.402;2024-02-15T00:33:02;7.15;;;4.28;;
83194;SDS011;73090;49.282;11.402;2024-02-15T00:37:05;8.40;;;4.47;;
83194;SDS011;73090;49.282;11.402;2024-02-15T00:41:06;5.82;;;4.32;;
83194;SDS011;73090;49.282;11.402;2024-02-15T00:45:08;6.65;;;3.78;;
83194;SDS011;73090;49.282;11.402;2024-02-15T00:49:10;8.18;;;4.32;;
83194;SDS011;73090;49.282;11.402;2024-02-15T00:53:13;6.82;;;5.05;;
83194;SDS011;73090;49.282;11.402;2024-02-15T00:57:15;8.95;;;4.90;;
83194;SDS011;73090;49.282;11.402;2024-02-15T01:01:17;7.13;;;4.75;;
83194;SDS011;73090;49.282;11.402;2024-02-15T01:05:19;6.88;;;4.63;;
83194;SDS011;73090;49.282;11.402;2024-02-15T01:09:23;7.15;;;5.15;;
83194;SDS011;73090;49.282;11.402;2024-02-15T01:13:25;9.05;;;5.20;;
83194;SDS011;73090;49.282;11.402;2024-02-15T01:17:26;7.28;;;5.32;;
83194;SDS011;73090;49.282;11.402;2024-02-15T01:21:28;8.73;;;4.93;;
83194;SDS011;73090;49.282;11.402;2024-02-15T01:25:30;7.80;;;5.40;;
83194;SDS011;73090;49.282;11.402;2024-02-15T01:29:31;5.95;;;3.60;;
83194;SDS011;73090;49.282;11.402;2024-02-15T01:33:33;8.30;;;4.88;;
83194;SDS011;73090;49.282;11.402;2024-02-15T01:37:35;7.47;;;4.78;;
83194;SDS011;73090;49.282;11.402;2024-02-15T01:41:38;8.45;;;4.95;;
83194;SDS011;73090;49.282;11.402;2024-02-15T01:45:39;7.45;;;5.30;;
83194;SDS011;73090;49.282;11.402;2024-02-15T01:49:42;7.32;;;4.88;;
83194;SDS011;73090;49.282;11.402;2024-02-15T01:53:43;6.72;;;5.15;;
83194;SDS011;73090;49.282;11.402;2024-02-15T01:57:46;6.68;;;4.10;;
83194;SDS011;73090;49.282;11.402;2024-02-15T02:01:49;5.88;;;4.57;;
83194;SDS011;73090;49.282;11.402;2024-02-15T02:05:51;5.82;;;4.32;;
83194;SDS011;73090;49.282;11.402;2024-02-15T02:09:55;7.55;;;4.03;;
83194;SDS011;73090;49.282;11.402;2024-02-15T02:13:57;8.70;;;4.78;;
83194;SDS011;73090;49.282;11.402;2024-02-15T02:18:01;6.57;;;4.45;;
83194;SDS011;73090;49.282;11.402;2024-02-15T02:22:04;5.82;;;3.97;;
83194;SDS011;73090;49.282;11.402;2024-02-15T02:26:06;5.20;;;3.53;;
83194;SDS011;73090;49.282;11.402;2024-02-15T02:30:15;6.03;;;4.03;;
83194;SDS011;73090;49.282;11.402;2024-02-15T02:34:20;6.78;;;4.38;;
83194;SDS011;73090;49.282;11.402;2024-02-15T02:38:23;5.35;;;3.63;;
83194;SDS011;73090;49.282;11.402;2024-02-15T02:42:27;6.63;;;4.70;;
83194;SDS011;73090;49.282;11.402;2024-02-15T02:46:29;8.98;;;4.63;;
83194;SDS011;73090;49.282;11.402;2024-02-15T02:50:30;7.05;;;4.40;;
83194;SDS011;73090;49.282;11.402;2024-02-15T02:54:32;7.10;;;3.95;;
83194;SDS011;73090;49.282;11.402;2024-02-15T02:58:34;6.95;;;4.43;;
83194;SDS011;73090;49.282;11.402;2024-02-15T03:02:36;7.72;;;3.92;;
83194;SDS011;73090;49.282;11.402;2024-02-15T03:06:38;7.63;;;4.68;;
83194;SDS011;73090;49.282;11.402;2024-02-15T03:10:43;6.70;;;4.75;;
83194;SDS011;73090;49.282;11.402;2024-02-15T03:14:45;9.75;;;5.07;;
83194;SDS011;73090;49.282;11.402;2024-02-15T03:18:47;6.07;;;4.18;;
83194;SDS011;73090;49.282;11.402;2024-02-15T03:22:50;6.95;;;4.57;;
83194;SDS011;73090;49.282;11.402;2024-02-15T03:26:54;5.53;;;3.53;;
83194;SDS011;73090;49.282;11.402;2024-02-15T03:30:56;5.32;;;3.13;;
83194;SDS011;73090;49.282;11.402;2024-02-15T03:34:58;5.30;;;3.85;;
83194;SDS011;73090;49.282;11.402;2024-02-15T03:39:02;7.55;;;4.60;;
83194;SDS011;73090;49.282;11.402;2024-02-15T03:43:04;7.35;;;4.15;;
83194;SDS011;73090;49.282;11.402;2024-02-15T03:47:08;6.75;;;4.13;;
83194;SDS011;73090;49.282;11.402;2024-02-15T03:51:09;5.57;;;3.25;;
83194;SDS011;73090;49.282;11.402;2024-02-15T03:55:11;6.00;;;4.35;;
83194;SDS011;73090;49.282;11.402;2024-02-15T03:59:13;5.78;;;3.58;;
83194;SDS011;73090;49.282;11.402;2024-02-15T04:03:15;5.85;;;3.40;;
83194;SDS011;73090;49.282;11.402;2024-02-15T04:07:16;8.18;;;5.00;;
83194;SDS011;73090;49.282;11.402;2024-02-15T04:11:18;5.72;;;3.60;;
83194;SDS011;73090;49.282;11.402;2024-02-15T04:15:20;8.85;;;4.53;;
83194;SDS011;73090;49.282;11.402;2024-02-15T04:19:22;7.20;;;4.35;;
83194;SDS011;73090;49.282;11.402;2024-02-15T04:23:24;6.38;;;3.88;;
83194;SDS011;73090;49.282;11.402;2024-02-15T04:27:26;6.22;;;3.55;;
83194;SDS011;73090;49.282;11.402;2024-02-15T04:31:27;6.70;;;3.80;;
83194;SDS011;73090;49.282;11.402;2024-02-15T04:35:29;7.38;;;3.67;;
83194;SDS011;73090;49.282;11.402;2024-02-15T04:39:35;8.10;;;4.03;;
83194;SDS011;73090;49.282;11.402;2024-02-15T04:43:37;6.53;;;3.55;;
83194;SDS011;73090;49.282;11.402;2024-02-15T04:47:42;7.50;;;3.92;;
83194;SDS011;73090;49.282;11.402;2024-02-15T04:51:45;4.70;;;3.60;;
83194;SDS011;73090;49.282;11.402;2024-02-15T04:55:48;5.07;;;3.20;;
83194;SDS011;73090;49.282;11.402;2024-02-15T04:59:50;8.00;;;3.88;;
83194;SDS011;73090;49.282;11.402;2024-02-15T05:03:51;8.55;;;3.40;;
83194;SDS011;73090;49.282;11.402;2024-02-15T05:07:53;5.45;;;4.03;;
83194;SDS011;73090;49.282;11.402;2024-02-15T05:11:55;6.60;;;3.55;;
83194;SDS011;73090;49.282;11.402;2024-02-15T05:15:56;6.25;;;3.97;;
83194;SDS011;73090;49.282;11.402;2024-02-15T05:19:58;7.18;;;3.45;;
83194;SDS011;73090;49.282;11.402;2024-02-15T05:24:00;7.38;;;4.22;;
83194;SDS011;73090;49.282;11.402;2024-02-15T05:28:02;5.32;;;3.17;;
83194;SDS011;73090;49.282;11.402;2024-02-15T05:32:04;7.10;;;3.63;;
83194;SDS011;73090;49.282;11.402;2024-02-15T05:36:07;5.22;;;3.92;;
83194;SDS011;73090;49.282;11.402;2024-02-15T05:40:10;6.80;;;3.72;;
83194;SDS011;73090;49.282;11.402;2024-02-15T05:44:17;5.32;;;3.50;;
83194;SDS011;73090;49.282;11.402;2024-02-15T05:48:21;10.15;;;5.15;;
83194;SDS011;73090;49.282;11.402;2024-02-15T05:52:23;7.70;;;3.72;;
83194;SDS011;73090;49.282;11.402;2024-02-15T05:56:25;5.70;;;3.90;;
83194;SDS011;73090;49.282;11.402;2024-02-15T06:00:27;5.43;;;3.88;;
83194;SDS011;73090;49.282;11.402;2024-02-15T06:04:31;6.20;;;3.65;;
83194;SDS011;73090;49.282;11.402;2024-02-15T06:08:33;6.03;;;3.63;;
83194;SDS011;73090;49.282;11.402;2024-02-15T06:12:35;5.93;;;4.60;;
83194;SDS011;73090;49.282;11.402;2024-02-15T06:16:43;6.07;;;3.95;;
83194;SDS011;73090;49.282;11.402;2024-02-15T06:20:46;8.10;;;3.60;;
83194;SDS011;73090;49.282;11.402;2024-02-15T06:24:52;5.00;;;3.60;;
83194;SDS011;73090;49.282;11.402;2024-02-15T06:28:54;6.10;;;3.75;;
83194;SDS011;73090;49.282;11.402;2024-02-15T06:33:14;5.05;;;3.67;;
83194;SDS011;73090;49.282;11.402;2024-02-15T06:37:35;5.88;;;3.42;;
83194;SDS011;73090;49.282;11.402;2024-02-15T06:41:58;4.97;;;3.85;;
83194;SDS011;73090;49.282;11.402;2024-02-15T06:46:00;5.75;;;3.58;;
83194;SDS011;73090;49.282;11.402;2024-02-15T06:50:02;8.65;;;4.53;;
83194;SDS011;73090;49.282;11.402;2024-02-15T06:54:04;4.80;;;3.33;;
83194;SDS011;73090;49.282;11.402;2024-02-15T06:58:05;5.35;;;3.05;;
83194;SDS011;73090;49.282;11.402;2024-02-15T07:02:07;5.45;;;3.42;;
83194;SDS011;73090;49.282;11.402;2024-02-15T07:06:10;5.60;;;3.92;;
83194;SDS011;73090;49.282;11.402;2024-02-15T07:10:11;4.85;;;2.67;;
83194;SDS011;73090;49.282;11.402;2024-02-15T07:14:14;4.97;;;2.95;;
83194;SDS011;73090;49.282;11.402;2024-02-15T07:18:17;4.78;;;3.47;;
83194;SDS011;73090;49.282;11.402;2024-02-15T07:22:32;5.53;;;4.28;;
83194;SDS011;73090;49.282;11.402;2024-02-15T07:26:34;4.40;;;3.28;;
83194;SDS011;73090;49.282;11.402;2024-02-15T07:30:37;4.20;;;2.75;;
83194;SDS011;73090;49.282;11.402;2024-02-15T07:34:39;5.18;;;3.53;;
83194;SDS011;73090;49.282;11.402;2024-02-15T07:38:43;4.38;;;3.75;;
83194;SDS011;73090;49.282;11.402;2024-02-15T07:42:46;4.10;;;3.15;;
83194;SDS011;73090;49.282;11.402;2024-02-15T07:46:48;7.60;;;3.58;;
83194;SDS011;73090;49.282;11.402;2024-02-15T07:50:51;5.97;;;3.17;;
83194;SDS011;73090;49.282;11.402;2024-02-15T07:54:53;8.25;;;4.18;;
83194;SDS011;73090;49.282;11.402;2024-02-15T07:58:55;6.47;;;4.88;;
83194;SDS011;73090;49.282;11.402;2024-02-15T08:02:56;8.15;;;4.63;;
83194;SDS011;73090;49.282;11.402;2024-02-15T08:07:02;9.20;;;4.88;;
83194;SDS011;73090;49.282;11.402;2024-02-15T08:11:04;7.78;;;4.80;;
83194;SDS011;73090;49.282;11.402;2024-02-15T08:15:05;9.88;;;4.70;;
83194;SDS011;73090;49.282;11.402;2024-02-15T08:19:13;7.32;;;4.43;;
83194;SDS011;73090;49.282;11.402;2024-02-15T08:23:15;10.73;;;5.32;;
83194;SDS011;73090;49.282;11.402;2024-02-15T08:27:16;10.00;;;5.07;;
83194;SDS011;73090;49.282;11.402;2024-02-15T08:31:18;19.90;;;9.00;;
83194;SDS011;73090;49.282;11.402;2024-02-15T08:35:20;11.02;;;6.95;;
83194;SDS011;73090;49.282;11.402;2024-02-15T08:39:22;9.93;;;6.80;;
83194;SDS011;73090;49.282;11.402;2024-02-15T08:43:24;11.32;;;6.30;;
83194;SDS011;73090;49.282;11.402;2024-02-15T08:47:26;9.70;;;5.95;;
83194;SDS011;73090;49.282;11.402;2024-02-15T08:51:28;12.02;;;6.68;;
83194;SDS011;73090;49.282;11.402;2024-02-15T08:55:31;9.52;;;5.50;;
83194;SDS011;73090;49.282;11.402;2024-02-15T08:59:33;9.77;;;4.95;;
83194;SDS011;73090;49.282;11.402;2024-02-15T09:03:35;6.53;;;4.07;;
83194;SDS011;73090;49.282;11.402;2024-02-15T09:07:37;7.18;;;4.30;;
83194;SDS011;73090;49.282;11.402;2024-02-15T09:11:40;8.55;;;5.47;;
83194;SDS011;73090;49.282;11.402;2024-02-15T09:15:42;7.22;;;4.25;;
83194;SDS011;73090;49.282;11.402;2024-02-15T09:19:46;7.70;;;3.97;;
83194;SDS011;73090;49.282;11.402;2024-02-15T09:23:50;5.55;;;3.65;;
83194;SDS011;73090;49.282;11.402;2024-02-15T09:27:52;6.40;;;2.70;;
83194;SDS011;73090;49.282;11.402;2024-02-15T09:31:56;11.73;;;4.35;;
83194;SDS011;73090;49.282;11.402;2024-02-15T09:35:58;7.70;;;4.07;;
83194;SDS011;73090;49.282;11.402;2024-02-15T09:40:00;5.60;;;3.38;;
83194;SDS011;73090;49.282;11.402;2024-02-15T09:44:07;5.95;;;3.20;;
83194;SDS011;73090;49.282;11.402;2024-02-15T09:48:10;5.70;;;3.17;;
83194;SDS011;73090;49.282;11.402;2024-02-15T09:52:14;3.55;;;2.85;;
83194;SDS011;73090;49.282;11.402;2024-02-15T09:56:19;4.38;;;3.17;;
83194;SDS011;73090;49.282;11.402;2024-02-15T10:00:25;7.50;;;2.65;;
83194;SDS011;73090;49.282;11.402;2024-02-15T10:04:27;4.75;;;3.20;;
83194;SDS011;73090;49.282;11.402;2024-02-15T10:08:31;7.38;;;2.83;;
83194;SDS011;73090;49.282;11.402;2024-02-15T10:12:37;17.65;;;3.25;;
83194;SDS011;73090;49.282;11.402;2024-02-15T10:16:41;3.53;;;2.55;;
83194;SDS011;73090;49.282;11.402;2024-02-15T10:20:45;3.67;;;2.40;;
83194;SDS011;73090;49.282;11.402;2024-02-15T10:25:11;4.90;;;2.00;;
83194;SDS011;73090;49.282;11.402;2024-02-15T10:29:14;4.13;;;1.92;;
83194;SDS011;73090;49.282;11.402;2024-02-15T10:33:28;4.82;;;2.22;;
83194;SDS011;73090;49.282;11.402;2024-02-15T10:37:31;3.05;;;1.98;;
83194;SDS011;73090;49.282;11.402;2024-02-15T10:41:33;5.00;;;1.73;;
83194;SDS011;73090;49.282;11.402;2024-02-15T10:45:36;6.13;;;1.98;;
83194;SDS011;73090;49.282;11.402;2024-02-15T10:49:38;2.75;;;1.77;;
83194;SDS011;73090;49.282;11.402;2024-02-15T10:53:44;2.17;;;1.88;;
83194;SDS011;73090;49.282;11.402;2024-02-15T10:58:00;10.05;;;1.90;;
83194;SDS011;73090;49.282;11.402;2024-02-15T11:06:33;1.92;;;1.52;;
83194;SDS011;73090;49.282;11.402;2024-02-15T11:10:40;2.47;;;1.45;;
83194;SDS011;73090;49.282;11.402;2024-02-15T11:18:47;4.55;;;1.25;;
83194;SDS011;73090;49.282;11.402;2024-02-15T11:22:55;3.40;;;1.58;;
83194;SDS011;73090;49.282;11.402;2024-02-15T11:27:01;3.95;;;1.67;;
83194;SDS011;73090;49.282;11.402;2024-02-15T11:31:07;2.30;;;1.05;;
83194;SDS011;73090;49.282;11.402;2024-02-15T11:35:11;2.72;;;1.52;;
83194;SDS011;73090;49.282;11.402;2024-02-15T11:48:02;5.25;;;1.30;;
83194;SDS011;73090;49.282;11.402;2024-02-15T11:52:09;3.33;;;1.33;;
83194;SDS011;73090;49.282;11.402;2024-02-15T11:56:11;2.45;;;1.90;;
83194;SDS011;73090;49.282;11.402;2024-02-15T12:04:43;1.83;;;1.05;;
83194;SDS011;73090;49.282;11.402;2024-02-15T12:09:04;2.72;;;1.42;;
83194;SDS011;73090;49.282;11.402;2024-02-15T12:13:24;2.20;;;1.30;;
83194;SDS011;73090;49.282;11.402;2024-02-15T12:17:45;5.22;;;1.25;;
83194;SDS011;73090;49.282;11.402;2024-02-15T12:22:05;3.92;;;1.20;;
83194;SDS011;73090;49.282;11.402;2024-02-15T12:26:08;2.03;;;1.23;;
83194;SDS011;73090;49.282;11.402;2024-02-15T12:30:14;2.95;;;1.63;;
83194;SDS011;73090;49.282;11.402;2024-02-15T12:34:17;3.88;;;1.02;;
83194;SDS011;73090;49.282;11.402;2024-02-15T12:38:21;3.03;;;1.30;;
83194;SDS011;73090;49.282;11.402;2024-02-15T12:42:23;1.77;;;1.35;;
83194;SDS011;73090;49.282;11.402;2024-02-15T12:46:25;4.38;;;1.33;;
83194;SDS011;73090;49.282;11.402;2024-02-15T12:50:29;4.28;;;2.30;;
83194;SDS011;73090;49.282;11.402;2024-02-15T12:54:31;2.97;;;1.42;;
83194;SDS011;73090;49.282;11.402;2024-02-15T12:58:33;1.77;;;1.00;;
83194;SDS011;73090;49.282;11.402;2024-02-15T13:02:34;4.72;;;1.40;;
83194;SDS011;73090;49.282;11.402;2024-02-15T13:06:36;2.67;;;1.05;;
83194;SDS011;73090;49.282;11.402;2024-02-15T13:10:39;4.13;;;1.95;;
83194;SDS011;73090;49.282;11.402;2024-02-15T13:14:41;2.35;;;1.45;;
83194;SDS011;73090;49.282;11.402;2024-02-15T13:18:43;1.77;;;1.48;;
83194;SDS011;73090;49.282;11.402;2024-02-15T13:22:48;3.72;;;1.38;;
83194;SDS011;73090;49.282;11.402;2024-02-15T13:26:50;1.73;;;1.20;;
83194;SDS011;73090;49.282;11.402;2024-02-15T13:30:52;1.55;;;1.45;;
83194;SDS011;73090;49.282;11.402;2024-02-15T13:34:57;2.92;;;1.67;;
83194;SDS011;73090;49.282;11.402;2024-02-15T13:39:01;2.75;;;1.17;;
83194;SDS011;73090;49.282;11.402;2024-02-15T13:43:05;1.92;;;1.15;;
83194;SDS011;73090;49.282;11.402;2024-02-15T13:47:07;1.77;;;1.10;;
83194;SDS011;73090;49.282;11.402;2024-02-15T13:51:08;1.33;;;1.08;;
83194;SDS011;73090;49.282;11.402;2024-02-15T13:55:14;2.22;;;1.25;;
83194;SDS011;73090;49.282;11.402;2024-02-15T13:59:17;1.85;;;1.33;;
83194;SDS011;73090;49.282;11.402;2024-02-15T14:03:18;2.10;;;1.90;;
83194;SDS011;73090;49.282;11.402;2024-02-15T14:07:23;4.65;;;1.48;;
83194;SDS011;73090;49.282;11.402;2024-02-15T14:11:24;2.65;;;1.05;;
83194;SDS011;73090;49.282;11.402;2024-02-15T14:15:26;2.63;;;1.38;;
83194;SDS011;73090;49.282;11.402;2024-02-15T14:19:29;1.92;;;1.20;;
83194;SDS011;73090;49.282;11.402;2024-02-15T14:23:30;3.88;;;1.40;;
83194;SDS011;73090;49.282;11.402;2024-02-15T14:27:32;2.00;;;1.40;;
83194;SDS011;73090;49.282;11.402;2024-02-15T14:31:34;3.47;;;1.40;;
83194;SDS011;73090;49.282;11.402;2024-02-15T14:35:54;1.52;;;1.25;;
83194;SDS011;73090;49.282;11.402;2024-02-15T14:39:56;1.73;;;1.15;;
83194;SDS011;73090;49.282;11.402;2024-02-15T14:44:05;2.45;;;1.20;;
83194;SDS011;73090;49.282;11.402;2024-02-15T14:48:07;3.03;;;1.92;;
83194;SDS011;73090;49.282;11.402;2024-02-15T14:52:11;1.83;;;1.40;;
83194;SDS011;73090;49.282;11.402;2024-02-15T14:56:14;4.43;;;1.63;;
83194;SDS011;73090;49.282;11.402;2024-02-15T15:00:17;2.17;;;1.48;;
83194;SDS011;73090;49.282;11.402;2024-02-15T15:04:19;2.40;;;1.75;;
83194;SDS011;73090;49.282;11.402;2024-02-15T15:08:20;2.25;;;1.67;;
83194;SDS011;73090;49.282;11.402;2024-02-15T15:12:41;2.80;;;1.85;;
83194;SDS011;73090;49.282;11.402;2024-02-15T15:16:47;4.78;;;1.45;;
83194;SDS011;73090;49.282;11.402;2024-02-15T15:20:49;5.05;;;1.98;;
83194;SDS011;73090;49.282;11.402;2024-02-15T15:24:52;3.55;;;1.92;;
83194;SDS011;73090;49.282;11.402;2024-02-15T15:28:53;2.30;;;1.88;;
83194;SDS011;73090;49.282;11.402;2024-02-15T15:32:58;4.72;;;1.58;;
83194;SDS011;73090;49.282;11.402;2024-02-15T15:37:00;6.63;;;1.50;;
83194;SDS011;73090;49.282;11.402;2024-02-15T15:41:02;2.47;;;1.60;;
83194;SDS011;73090;49.282;11.402;2024-02-15T15:45:05;2.53;;;1.23;;
83194;SDS011;73090;49.282;11.402;2024-02-15T15:49:07;2.67;;;1.70;;
83194;SDS011;73090;49.282;11.402;2024-02-15T15:53:09;4.57;;;1.70;;
83194;SDS011;73090;49.282;11.402;2024-02-15T15:57:15;2.30;;;1.48;;
83194;SDS011;73090;49.282;11.402;2024-02-15T16:01:17;4.22;;;1.67;;
83194;SDS011;73090;49.282;11.402;2024-02-15T16:05:20;2.50;;;1.40;;
83194;SDS011;73090;49.282;11.402;2024-02-15T16:09:22;2.35;;;1.35;;
83194;SDS011;73090;49.282;11.402;2024-02-15T16:13:24;3.67;;;2.60;;
83194;SDS011;73090;49.282;11.402;2024-02-15T16:17:27;1.85;;;1.75;;
83194;SDS011;73090;49.282;11.402;2024-02-15T16:21:31;5.75;;;1.65;;
83194;SDS011;73090;49.282;11.402;2024-02-15T16:25:34;3.00;;;1.42;;
83194;SDS011;73090;49.282;11.402;2024-02-15T16:29:38;2.85;;;1.38;;
83194;SDS011;73090;49.282;11.402;2024-02-15T16:33:40;5.13;;;1.88;;
83194;SDS011;73090;49.282;11.402;2024-02-15T16:37:43;3.28;;;1.60;;
83194;SDS011;73090;49.282;11.402;2024-02-15T16:41:47;2.83;;;1.90;;
83194;SDS011;73090;49.282;11.402;2024-02-15T16:45:51;4.50;;;1.75;;
83194;SDS011;73090;49.282;11.402;2024-02-15T16:49:53;3.22;;;1.77;;
83194;SDS011;73090;49.282;11.402;2024-02-15T16:53:55;5.53;;;1.92;;
83194;SDS011;73090;49.282;11.402;2024-02-15T16:57:59;2.33;;;1.85;;
83194;SDS011;73090;49.282;11.402;2024-02-15T17:02:05;3.03;;;1.80;;
83194;SDS011;73090;49.282;11.402;2024-02-15T17:06:08;6.97;;;2.95;;
83194;SDS011;73090;49.282;11.402;2024-02-15T17:10:10;6.70;;;2.22;;
83194;SDS011;73090;49.282;11.402;2024-02-15T17:14:12;3.45;;;1.58;;
83194;SDS011;73090;49.282;11.402;2024-02-15T17:18:17;2.45;;;1.60;;
83194;SDS011;73090;49.282;11.402;2024-02-15T17:22:27;3.83;;;1.58;;
83194;SDS011;73090;49.282;11.402;2024-02-15T17:26:29;3.33;;;1.80;;
83194;SDS011;73090;49.282;11.402;2024-02-15T17:30:30;3.78;;;1.88;;
83194;SDS011;73090;49.282;11.402;2024-02-15T17:34:32;2.80;;;2.03;;
83194;SDS011;73090;49.282;11.402;2024-02-15T17:38:33;2.72;;;1.40;;
83194;SDS011;73090;49.282;11.402;2024-02-15T17:42:35;2.53;;;1.80;;
83194;SDS011;73090;49.282;11.402;2024-02-15T17:46:37;2.45;;;1.52;;
83194;SDS011;73090;49.282;11.402;2024-02-15T17:50:39;2.55;;;2.13;;
83194;SDS011;73090;49.282;11.402;2024-02-15T17:54:42;3.78;;;2.10;;
83194;SDS011;73090;49.282;11.402;2024-02-15T17:58:43;4.57;;;2.47;;
83194;SDS011;73090;49.282;11.402;2024-02-15T18:02:46;3.13;;;1.63;;
83194;SDS011;73090;49.282;11.402;2024-02-15T18:06:51;2.05;;;1.60;;
83194;SDS011;73090;49.282;11.402;2024-02-15T18:10:53;4.70;;;3.20;;
83194;SDS011;73090;49.282;11.402;2024-02-15T18:14:57;4.38;;;2.75;;
83194;SDS011;73090;49.282;11.402;2024-02-15T18:18:59;7.97;;;3.75;;
83194;SDS011;73090;49.282;11.402;2024-02-15T18:23:01;6.63;;;3.75;;
83194;SDS011;73090;49.282;11.402;2024-02-15T18:27:03;6.13;;;3.90;;
83194;SDS011;73090;49.282;11.402;2024-02-15T18:31:06;5.35;;;4.03;;
83194;SDS011;73090;49.282;11.402;2024-02-15T18:35:11;5.80;;;4.57;;
83194;SDS011;73090;49.282;11.402;2024-02-15T18:39:13;8.38;;;5.25;;
83194;SDS011;73090;49.282;11.402;2024-02-15T18:43:15;6.45;;;5.40;;
83194;SDS011;73090;49.282;11.402;2024-02-15T18:47:16;8.50;;;5.00;;
83194;SDS011;73090;49.282;11.402;2024-02-15T18:51:18;10.15;;;5.38;;
83194;SDS011;73090;49.282;11.402;2024-02-15T18:55:22;6.88;;;4.65;;
83194;SDS011;73090;49.282;11.402;2024-02-15T18:59:31;6.90;;;4.13;;
83194;SDS011;73090;49.282;11.402;2024-02-15T19:03:33;6.63;;;4.20;;
83194;SDS011;73090;49.282;11.402;2024-02-15T19:07:34;3.80;;;2.65;;
83194;SDS011;73090;49.282;11.402;2024-02-15T19:11:36;3.67;;;2.83;;
83194;SDS011;73090;49.282;11.402;2024-02-15T19:15:39;4.50;;;2.80;;
83194;SDS011;73090;49.282;11.402;2024-02-15T19:19:41;3.72;;;2.72;;
83194;SDS011;73090;49.282;11.402;2024-02-15T19:23:43;8.07;;;4.00;;
83194;SDS011;73090;49.282;11.402;2024-02-15T19:27:47;5.60;;;3.65;;
83194;SDS011;73090;49.282;11.402;2024-02-15T19:31:50;7.35;;;3.72;;
83194;SDS011;73090;49.282;11.402;2024-02-15T19:35:52;3.50;;;2.92;;
83194;SDS011;73090;49.282;11.402;2024-02-15T19:39:54;3.85;;;3.17;;
83194;SDS011;73090;49.282;11.402;2024-02-15T19:43:56;4.63;;;3.83;;
83194;SDS011;73090;49.282;11.402;2024-02-15T19:47:57;4.43;;;2.67;;
83194;SDS011;73090;49.282;11.402;2024-02-15T19:52:00;3.67;;;2.30;;
83194;SDS011;73090;49.282;11.402;2024-02-15T19:56:02;3.83;;;2.53;;
83194;SDS011;73090;49.282;11.402;2024-02-15T20:00:05;4.53;;;2.50;;
83194;SDS011;73090;49.282;11.402;2024-02-15T20:04:09;4.65;;;2.85;;
83194;SDS011;73090;49.282;11.402;2024-02-15T20:08:11;5.45;;;2.63;;
83194;SDS011;73090;49.282;11.402;2024-02-15T20:12:13;5.05;;;3.30;;
83194;SDS011;73090;49.282;11.402;2024-02-15T20:16:15;6.25;;;3.50;;
83194;SDS011;73090;49.282;11.402;2024-02-15T20:20:18;9.10;;;4.28;;
83194;SDS011;73090;49.282;11.402;2024-02-15T20:24:20;6.50;;;2.55;;
83194;SDS011;73090;49.282;11.402;2024-02-15T20:28:22;3.55;;;1.95;;
83194;SDS011;73090;49.282;11.402;2024-02-15T20:32:24;3.35;;;2.95;;
83194;SDS011;73090;49.282;11.402;2024-02-15T20:36:26;4.00;;;1.92;;
83194;SDS011;73090;49.282;11.402;2024-02-15T20:40:27;4.50;;;2.22;;
83194;SDS011;73090;49.282;11.402;2024-02-15T20:44:29;3.10;;;2.03;;
83194;SDS011;73090;49.282;11.402;2024-02-15T20:48:31;3.33;;;2.17;;
83194;SDS011;73090;49.282;11.402;2024-02-15T20:52:33;3.25;;;2.10;;
83194;SDS011;73090;49.282;11.402;2024-02-15T20:56:35;3.45;;;2.40;;
83194;SDS011;73090;49.282;11.402;2024-02-15T21:00:38;3.20;;;2.50;;
83194;SDS011;73090;49.282;11.402;2024-02-15T21:04:40;3.97;;;2.47;;
83194;SDS011;73090;49.282;11.402;2024-02-15T21:08:42;2.67;;;2.00;;
83194;SDS011;73090;49.282;11.402;2024-02-15T21:12:45;3.72;;;2.17;;
83194;SDS011;73090;49.282;11.402;2024-02-15T21:16:46;5.13;;;2.10;;
83194;SDS011;73090;49.282;11.402;2024-02-15T21:20:48;6.78;;;2.88;;
83194;SDS011;73090;49.282;11.402;2024-02-15T21:24:52;3.10;;;2.53;;
83194;SDS011;73090;49.282;11.402;2024-02-15T21:28:54;2.80;;;2.28;;
83194;SDS011;73090;49.282;11.402;2024-02-15T21:32:57;2.95;;;2.72;;
83194;SDS011;73090;49.282;11.402;2024-02-15T21:37:00;2.22;;;2.03;;
83194;SDS011;73090;49.282;11.402;2024-02-15T21:41:02;4.75;;;2.50;;
83194;SDS011;73090;49.282;11.402;2024-02-15T21:45:04;2.20;;;1.83;;
83194;SDS011;73090;49.282;11.402;2024-02-15T21:49:07;4.03;;;2.92;;
83194;SDS011;73090;49.282;11.402;2024-02-15T21:53:10;4.03;;;2.38;;
83194;SDS011;73090;49.282;11.402;2024-02-15T21:57:11;3.55;;;1.83;;
83194;SDS011;73090;49.282;11.402;2024-02-15T22:01:13;3.20;;;2.90;;
83194;SDS011;73090;49.282;11.402;2024-02-15T22:05:15;3.78;;;2.40;;
83194;SDS011;73090;49.282;11.402;2024-02-15T22:09:19;4.00;;;2.10;;
83194;SDS011;73090;49.282;11.402;2024-02-15T22:13:21;2.95;;;1.85;;
83194;SDS011;73090;49.282;11.402;2024-02-15T22:17:22;3.42;;;3.00;;
83194;SDS011;73090;49.282;11.402;2024-02-15T22:21:24;4.45;;;2.50;;
83194;SDS011;73090;49.282;11.402;2024-02-15T22:25:26;3.10;;;2.75;;
83194;SDS011;73090;49.282;11.402;2024-02-15T22:29:27;5.85;;;3.10;;
83194;SDS011;73090;49.282;11.402;2024-02-15T22:33:29;3.45;;;2.35;;
83194;SDS011;73090;49.282;11.402;2024-02-15T22:37:31;3.30;;;2.53;;
83194;SDS011;73090;49.282;11.402;2024-02-15T22:41:34;3.30;;;2.50;;
83194;SDS011;73090;49.282;11.402;2024-02-15T22:45:37;5.22;;;2.38;;
83194;SDS011;73090;49.282;11.402;2024-02-15T22:49:39;3.35;;;1.98;;
83194;SDS011;73090;49.282;11.402;2024-02-15T22:53:41;4.95;;;3.70;;
83194;SDS011;73090;49.282;11.402;2024-02-15T22:57:43;6.50;;;2.65;;
83194;SDS011;73090;49.282;11.402;2024-02-15T23:01:45;3.92;;;2.78;;
83194;SDS011;73090;49.282;11.402;2024-02-15T23:05:47;2.80;;;2.33;;
83194;SDS011;73090;49.282;11.402;2024-02-15T23:09:50;4.88;;;2.17;;
83194;SDS011;73090;49.282;11.402;2024-02-15T23:13:54;6.47;;;2.47;;
83194;SDS011;73090;49.282;11.402;2024-02-15T23:17:55;4.30;;;3.15;;
83194;SDS011;73090;49.282;11.402;2024-02-15T23:21:57;3.50;;;2.22;;
83194;SDS011;73090;49.282;11.402;2024-02-15T23:25:59;4.63;;;2.63;;
83194;SDS011;73090;49.282;11.402;2024-02-15T23:30:03;3.50;;;2.38;;
83194;SDS011;73090;49.282;11.402;2024-02-15T23:34:05;3.40;;;3.05;;
83194;SDS011;73090;49.282;11.402;2024-02-15T23:38:09;2.55;;;2.03;;
83194;SDS011;73090;49.282;11.402;2024-02-15T23:42:29;6.40;;;2.70;;
83194;SDS011;73090;49.282;11.402;2024-02-15T23:46:31;3.67;;;2.13;;
83194;SDS011;73090;49.282;11.402;2024-02-15T23:50:33;3.05;;;2.65;;
83194;SDS011;73090;49.282;11.402;2024-02-15T23:54:35;3.33;;;2.90;;
83194;SDS011;73090;49.282;11.402;2024-02-15T23:58:38;3.17;;;2.47;;
